Search for airport 
image banner adimage banner adimage banner ad
image banner ad

24IA - Isley Field

Located in Cedar Falls, United States

ICAO - 24IA, IATA -

Data provided by Airmate  

General information

Coordinates: N42°30'57" W92°31'11"
Elevation is 982 feet MSL.
Magnetic variation is 03° East
View others Airports in Iowa

Operational data

Special qualification required
Current time UTC:
Current local time:
Weather at : KALO - Waterloo Rgnl ( 11 km )
METAR: KALO 181754Z 00000KT 10SM CLR 32/11 A2984 RMK AO2 SLP097 T03170111 10328 20222 53002
TAF: KALO 181724Z 1818/1918 VRB05KT P6SM SCT120 BKN250 FM182000 26005KT P6SM SCT250 FM190900 34007KT P6SM FEW250
View NOTAMs / SUP AIP / TFR affecting this airport [VIEW]
Communications frequencies: [VIEW]

Runways:

RWY identifierQFULength (ft)Width (ft)SurfaceLDA (ft)
082600190GRASS
262600190GRASS

Airport contact information

Address: Cedar Falls United States

Satellite view of 24IA